Ash Hill, North Carolina
Current Conditions -  °F | °C
As of 3:35 AM on Saturday 20 Dec 2014 (Local Time) from KMWK Reporting Station
Broken Clouds Broken Clouds  
Wind Chill: 32°   Ceiling: 12000
Heat Index: 38°   Visibility: 10mi
Dew Point: 26°   Wind: 7mph
Humidity: 61%   Direction: 70°ENE
Pressure: 30.21"   Gusts: NA
Location:  36.3687°N, 80.588°W
Report Text: KMWK 200835Z AUTO 07006KT 10SM BKN120 03/M04 A3021 RMK AO2 T00321036
Loading
Personal Weather Stations






























Interactive Weather Map New forecast layout! Learn more

10-Day Weather Forecast

Advertisements
Track Severe Weather on mobile